Time;durP1;ratioP1;P1;durP2;ratioP2;P2;SDS_P1;SDS_P2;PMS_P1;PMS_P2;Temp;Humidity;BMP_temperature;BMP_pressure;BME280_temperature;BME280_humidity;BME280_pressure;Samples;Min_cycle;Max_cycle;Signal;HPM_P1;HPM_P2
2023/01/31 00:01:05;;;;;;;0.95;0.95;;;16.80;39.00;;;;;;5129947;27;45351;-66
2023/01/31 00:03:32;;;;;;;9.02;1.60;;;16.70;39.00;;;;;;5129585;27;45200;-75
2023/01/31 00:06:08;;;;;;;2.15;1.30;;;16.60;39.70;;;;;;5130512;27;45270;-75
2023/01/31 00:08:35;;;;;;;2.90;1.30;;;16.60;39.70;;;;;;5129896;27;45250;-74
2023/01/31 00:11:02;;;;;;;2.30;1.20;;;16.60;39.50;;;;;;5129769;27;45302;-70
2023/01/31 00:13:30;;;;;;;1.60;1.50;;;16.60;39.60;;;;;;5130064;27;45541;-74
2023/01/31 00:15:57;;;;;;;3.58;1.35;;;16.70;39.50;;;;;;5129517;27;47344;-70
2023/01/31 00:18:24;;;;;;;3.20;1.33;;;16.60;39.80;;;;;;5129423;27;45357;-66
2023/01/31 00:20:51;;;;;;;2.63;1.40;;;16.60;39.80;;;;;;5129219;27;45322;-67
2023/01/31 00:23:18;;;;;;;2.35;1.35;;;16.60;39.80;;;;;;5129661;27;45388;-67
2023/01/31 00:25:45;;;;;;;3.90;1.48;;;16.60;39.80;;;;;;5129313;27;45181;-67
2023/01/31 00:28:12;;;;;;;2.63;1.40;;;16.50;39.70;;;;;;5129117;27;45327;-67
2023/01/31 00:30:40;;;;;;;1.42;1.30;;;16.50;39.70;;;;;;5129509;27;45275;-66
2023/01/31 00:33:07;;;;;;;1.02;1.02;;;16.40;39.70;;;;;;5129605;27;45415;-66
2023/01/31 00:35:34;;;;;;;1.60;1.30;;;16.40;39.70;;;;;;5129410;27;47331;-66
2023/01/31 00:38:01;;;;;;;3.17;1.20;;;16.40;39.80;;;;;;5129229;27;45122;-66
2023/01/31 00:40:28;;;;;;;1.60;1.23;;;16.40;39.80;;;;;;5129277;27;45276;-66
2023/01/31 00:42:54;;;;;;;1.33;0.93;;;16.40;39.60;;;;;;5129414;27;45328;-67
2023/01/31 00:45:21;;;;;;;1.67;1.10;;;16.50;39.40;;;;;;5129024;27;46391;-66
2023/01/31 00:47:50;;;;;;;2.45;1.42;;;16.60;39.10;;;;;;5128981;27;45305;-66
2023/01/31 00:50:17;;;;;;;1.50;1.10;;;16.70;38.90;;;;;;5129122;27;45268;-66
2023/01/31 00:52:44;;;;;;;0.98;0.98;;;16.90;38.70;;;;;;5129401;27;45370;-67
2023/01/31 00:55:10;;;;;;;1.27;1.15;;;17.00;38.50;;;;;;5128950;27;45277;-66
2023/01/31 00:57:37;;;;;;;1.15;1.08;;;17.10;38.30;;;;;;5128578;27;45244;-67
2023/01/31 01:00:06;;;;;;;1.17;1.08;;;17.20;38.10;;;;;;5129067;27;45219;-65
2023/01/31 01:02:32;;;;;;;0.80;0.80;;;17.20;37.90;;;;;;5129241;27;45249;-66
2023/01/31 01:05:01;;;;;;;3.15;1.10;;;17.30;37.90;;;;;;5128765;27;45311;-65
2023/01/31 01:07:27;;;;;;;0.95;0.88;;;17.30;37.80;;;;;;5127820;27;45316;-67
2023/01/31 01:09:55;;;;;;;1.48;1.15;;;17.30;37.80;;;;;;5127958;27;45185;-65
2023/01/31 01:12:22;;;;;;;0.90;0.90;;;17.30;37.80;;;;;;5128942;27;45226;-66
2023/01/31 01:14:49;;;;;;;1.10;1.00;;;17.30;37.80;;;;;;5128597;27;45464;-65
2023/01/31 01:17:15;;;;;;;1.10;1.10;;;17.20;37.80;;;;;;5128574;27;45513;-66
2023/01/31 01:19:42;;;;;;;1.20;1.10;;;17.20;37.90;;;;;;5128696;27;45462;-65
2023/01/31 01:22:15;;;;;;;1.10;1.10;;;17.10;37.90;;;;;;5128949;27;45184;-65
2023/01/31 01:24:42;;;;;;;1.27;1.17;;;17.10;38.00;;;;;;5128520;27;45460;-66
2023/01/31 01:27:09;;;;;;;0.95;0.95;;;17.00;38.00;;;;;;5128394;27;45384;-66
2023/01/31 01:29:36;;;;;;;1.95;1.20;;;17.00;38.10;;;;;;5128503;27;45137;-65
2023/01/31 01:32:03;;;;;;;1.75;1.05;;;16.90;38.20;;;;;;5128665;27;45270;-68
2023/01/31 01:34:30;;;;;;;1.55;1.10;;;16.90;38.30;;;;;;5128246;27;45334;-67
2023/01/31 01:36:57;;;;;;;1.55;1.13;;;16.80;38.30;;;;;;5128361;27;45326;-67
2023/01/31 01:39:28;;;;;;;1.30;1.13;;;16.80;38.40;;;;;;5128328;27;45271;-67
2023/01/31 01:41:55;;;;;;;1.25;1.10;;;16.70;38.40;;;;;;5128554;27;45332;-66
2023/01/31 01:44:47;;;;;;;1.02;1.00;;;16.70;38.50;;;;;;5128182;27;45520;-66
2023/01/31 01:47:20;;;;;;;1.50;1.35;;;16.60;38.60;;;;;;5128175;27;45217;-66
2023/01/31 01:49:48;;;;;;;0.85;0.85;;;16.60;38.60;;;;;;5128082;27;45188;-66
2023/01/31 01:52:15;;;;;;;1.10;1.00;;;16.50;38.70;;;;;;5128470;27;45547;-66
2023/01/31 01:54:46;;;;;;;0.88;0.85;;;16.50;38.70;;;;;;5127904;27;45395;-66
2023/01/31 01:57:12;;;;;;;1.17;1.08;;;16.40;38.70;;;;;;5128033;27;45237;-66
2023/01/31 01:59:41;;;;;;;1.20;1.05;;;16.40;38.80;;;;;;5128075;27;45218;-66
2023/01/31 02:02:08;;;;;;;0.98;0.98;;;16.40;38.90;;;;;;5128290;27;45283;-66
2023/01/31 02:04:39;;;;;;;0.90;0.90;;;16.30;38.80;;;;;;5127982;27;47401;-66
2023/01/31 02:07:05;;;;;;;1.38;1.00;;;16.30;38.90;;;;;;5127837;27;45356;-66
2023/01/31 02:09:39;;;;;;;1.02;0.95;;;16.30;39.00;;;;;;5127622;27;45340;-66
2023/01/31 02:12:07;;;;;;;0.90;0.90;;;16.30;39.70;;;;;;5127998;27;45402;-66
2023/01/31 02:14:34;;;;;;;0.95;0.82;;;16.30;39.00;;;;;;5127592;27;45455;-67
2023/01/31 02:17:02;;;;;;;1.20;1.00;;;16.30;38.70;;;;;;5127647;27;45203;-66
2023/01/31 02:19:31;;;;;;;0.80;0.80;;;16.40;38.60;;;;;;5126514;27;45295;-66
2023/01/31 02:22:10;;;;;;;0.80;0.80;;;16.50;38.50;;;;;;5127775;27;45233;-66
2023/01/31 02:25:12;;;;;;;0.80;0.80;;;16.60;38.30;;;;;;5127470;27;45238;-66
2023/01/31 02:28:14;;;;;;;1.08;0.98;;;16.70;38.00;;;;;;5127821;27;45347;-66
2023/01/31 02:31:09;;;;;;;1.08;1.00;;;16.90;37.80;;;;;;5092502;27;45314;-66
2023/01/31 02:33:39;;;;;;;0.63;0.63;;;17.10;37.50;;;;;;5127771;27;45523;-66
2023/01/31 02:36:11;;;;;;;1.10;1.08;;;17.20;37.30;;;;;;5127235;27;45377;-66
2023/01/31 02:38:44;;;;;;;1.20;1.00;;;17.20;37.20;;;;;;5127172;27;45286;-66
2023/01/31 02:41:16;;;;;;;1.10;1.10;;;17.20;37.20;;;;;;5127514;27;45344;-65
2023/01/31 02:46:29;;;;;;;1.13;0.93;;;17.20;37.20;;;;;;5126723;27;45486;-66
2023/01/31 02:48:59;;;;;;;1.20;1.10;;;17.10;37.20;;;;;;5126955;27;45272;-67
2023/01/31 02:51:27;;;;;;;0.70;0.70;;;17.10;37.30;;;;;;5127581;27;45189;-65
2023/01/31 02:53:58;;;;;;;0.90;0.90;;;17.10;37.30;;;;;;5127393;27;45233;-66
2023/01/31 02:56:25;;;;;;;0.90;0.90;;;17.00;37.30;;;;;;5127094;27;47582;-66
2023/01/31 02:58:55;;;;;;;1.02;0.80;;;17.00;37.50;;;;;;5127054;27;45232;-66
2023/01/31 03:01:23;;;;;;;0.95;0.90;;;17.00;38.20;;;;;;5127088;27;45376;-67
2023/01/31 03:03:50;;;;;;;0.70;0.70;;;16.90;37.60;;;;;;5127298;27;45360;-65
2023/01/31 03:06:53;;;;;;;1.58;1.08;;;16.90;37.60;;;;;;5126923;27;47288;-67
2023/01/31 03:09:25;;;;;;;0.90;0.90;;;16.80;37.70;;;;;;5126664;27;45349;-67
2023/01/31 03:11:53;;;;;;;0.90;0.90;;;16.70;37.70;;;;;;5126956;27;45244;-67
2023/01/31 03:14:23;;;;;;;1.35;1.00;;;16.70;37.80;;;;;;5127030;27;45546;-67
2023/01/31 03:19:38;;;;;;;1.00;1.00;;;16.60;38.00;;;;;;5126874;27;45333;-67
2023/01/31 03:22:10;;;;;;;1.13;1.02;;;16.50;38.00;;;;;;5127037;27;45295;-67
2023/01/31 03:24:37;;;;;;;1.00;0.90;;;16.50;38.10;;;;;;5126971;27;45375;-67
2023/01/31 03:27:04;;;;;;;0.88;0.80;;;16.40;38.10;;;;;;5126456;27;45301;-66
2023/01/31 03:29:34;;;;;;;0.93;0.93;;;16.40;38.20;;;;;;5126131;27;45472;-67
2023/01/31 03:32:03;;;;;;;1.20;1.10;;;16.30;38.20;;;;;;5126682;27;45242;-67
2023/01/31 03:34:30;;;;;;;0.95;0.88;;;16.30;38.40;;;;;;5126877;27;45283;-67
2023/01/31 03:36:59;;;;;;;1.00;1.00;;;16.30;38.40;;;;;;5126386;27;45307;-67
2023/01/31 03:39:34;;;;;;;1.40;1.10;;;16.20;38.40;;;;;;5126407;27;45392;-67
2023/01/31 03:42:08;;;;;;;0.85;0.85;;;16.10;38.40;;;;;;5126607;27;45308;-67
2023/01/31 03:44:39;;;;;;;0.88;0.88;;;16.10;38.40;;;;;;5126798;27;45242;-67
2023/01/31 03:47:09;;;;;;;0.95;0.82;;;16.10;38.50;;;;;;5126275;27;45560;-65
2023/01/31 03:49:36;;;;;;;1.30;0.90;;;16.20;38.50;;;;;;5126153;27;45413;-67
2023/01/31 03:52:05;;;;;;;0.82;0.80;;;16.20;38.30;;;;;;5126479;27;45285;-67
2023/01/31 03:54:34;;;;;;;1.08;0.98;;;16.30;38.10;;;;;;5126565;27;45258;-67
2023/01/31 03:57:05;;;;;;;1.10;0.90;;;16.40;37.80;;;;;;5126234;27;45349;-67
2023/01/31 03:59:35;;;;;;;1.17;1.02;;;16.60;37.50;;;;;;5126202;27;45232;-67
2023/01/31 04:02:02;;;;;;;0.82;0.82;;;16.70;37.30;;;;;;5126391;27;45321;-67
2023/01/31 04:04:31;;;;;;;0.90;0.90;;;16.90;37.70;;;;;;5126335;27;45306;-67
2023/01/31 04:06:59;;;;;;;1.20;1.10;;;17.00;36.90;;;;;;5126051;27;45230;-68
2023/01/31 04:09:26;;;;;;;1.00;1.00;;;17.10;36.80;;;;;;5125822;27;45230;-67
2023/01/31 04:11:54;;;;;;;0.85;0.85;;;17.20;36.70;;;;;;5126364;27;45287;-66
2023/01/31 04:14:21;;;;;;;1.02;0.93;;;17.20;36.60;;;;;;5126399;27;45229;-66
2023/01/31 04:16:48;;;;;;;0.90;0.90;;;17.20;36.60;;;;;;5125681;27;46816;-65
2023/01/31 04:19:15;;;;;;;0.98;0.88;;;17.20;36.50;;;;;;5126084;27;45202;-65
2023/01/31 04:21:42;;;;;;;0.70;0.70;;;17.20;36.60;;;;;;5126110;27;45309;-66
2023/01/31 04:24:09;;;;;;;1.17;1.08;;;17.10;36.50;;;;;;5126165;27;45411;-65
2023/01/31 04:26:36;;;;;;;1.08;0.98;;;17.10;36.60;;;;;;5125697;27;46717;-66
2023/01/31 04:29:04;;;;;;;0.90;0.90;;;17.10;36.70;;;;;;5125700;27;45193;-66
2023/01/31 04:31:31;;;;;;;1.17;1.08;;;17.00;36.60;;;;;;5125929;27;45208;-66
2023/01/31 04:33:58;;;;;;;0.90;0.88;;;17.00;36.70;;;;;;5126134;27;45294;-66
2023/01/31 04:36:25;;;;;;;0.82;0.82;;;16.90;36.80;;;;;;5125637;27;46660;-66
2023/01/31 04:38:52;;;;;;;0.85;0.85;;;16.90;36.90;;;;;;5125648;27;45460;-66
2023/01/31 04:41:19;;;;;;;1.10;0.90;;;16.80;36.90;;;;;;5126390;27;45193;-66
2023/01/31 04:43:46;;;;;;;1.17;1.10;;;16.80;37.00;;;;;;5129399;27;45442;-66
2023/01/31 04:46:14;;;;;;;0.95;0.95;;;16.70;37.00;;;;;;5129073;27;45362;-66
2023/01/31 04:48:41;;;;;;;1.00;0.90;;;16.60;37.40;;;;;;5129124;27;45366;-65
2023/01/31 04:51:08;;;;;;;0.60;0.60;;;16.60;37.20;;;;;;5129118;27;45271;-66
2023/01/31 04:53:35;;;;;;;0.95;0.95;;;16.60;37.30;;;;;;5129330;27;45178;-66
2023/01/31 04:56:02;;;;;;;1.30;1.00;;;16.50;37.30;;;;;;5128839;27;46413;-66
2023/01/31 04:58:29;;;;;;;0.88;0.88;;;16.40;37.40;;;;;;5128917;27;45317;-66
2023/01/31 05:00:56;;;;;;;1.10;1.00;;;16.40;37.50;;;;;;5129072;27;45232;-66
2023/01/31 05:03:24;;;;;;;0.85;0.85;;;16.40;37.60;;;;;;5129243;27;45513;-67
2023/01/31 05:05:51;;;;;;;1.10;1.00;;;16.30;37.60;;;;;;5128668;27;46417;-66
2023/01/31 05:08:18;;;;;;;0.65;0.65;;;16.30;37.70;;;;;;5128743;27;45330;-66
2023/01/31 05:10:45;;;;;;;1.10;1.00;;;16.20;37.70;;;;;;5128829;27;45301;-65
2023/01/31 05:13:13;;;;;;;1.10;1.00;;;16.20;37.80;;;;;;5129176;27;45200;-66
2023/01/31 05:15:40;;;;;;;0.80;0.80;;;16.10;37.90;;;;;;5128698;27;45231;-66
2023/01/31 05:18:07;;;;;;;1.13;1.02;;;16.10;38.00;;;;;;5128557;27;45270;-66
2023/01/31 05:20:38;;;;;;;1.25;0.95;;;16.10;38.10;;;;;;5128604;27;45314;-65
2023/01/31 05:23:05;;;;;;;0.82;0.80;;;16.10;38.60;;;;;;5126275;27;45178;-65
2023/01/31 05:25:32;;;;;;;0.93;0.93;;;16.10;37.80;;;;;;5128556;27;46412;-65
2023/01/31 05:27:59;;;;;;;0.85;0.85;;;16.20;37.70;;;;;;5128344;27;45453;-66
2023/01/31 05:30:26;;;;;;;0.80;0.80;;;16.30;37.50;;;;;;5128470;27;45250;-66
2023/01/31 05:32:53;;;;;;;0.90;0.90;;;16.50;37.30;;;;;;5128879;27;45254;-67
2023/01/31 05:35:20;;;;;;;0.93;0.82;;;16.60;37.00;;;;;;5128414;27;46381;-65
2023/01/31 05:37:48;;;;;;;1.17;1.00;;;16.80;36.80;;;;;;5128274;27;45206;-65
2023/01/31 05:40:16;;;;;;;1.10;1.00;;;16.90;36.50;;;;;;5128256;27;45297;-66
2023/01/31 05:42:43;;;;;;;1.67;1.08;;;17.00;36.40;;;;;;5128634;27;45461;-66
2023/01/31 05:45:11;;;;;;;2.65;1.20;;;17.10;36.30;;;;;;5128168;27;46896;-67
2023/01/31 05:47:38;;;;;;;1.05;1.00;;;17.10;36.30;;;;;;5128194;27;45347;-66
2023/01/31 05:50:06;;;;;;;0.88;0.88;;;17.10;36.20;;;;;;5128251;27;45290;-65
2023/01/31 05:52:32;;;;;;;1.20;1.10;;;17.10;36.30;;;;;;5127996;27;45357;-65
2023/01/31 05:55:01;;;;;;;1.20;1.10;;;17.10;36.30;;;;;;5127799;27;46609;-67
2023/01/31 05:57:28;;;;;;;1.00;0.90;;;17.10;36.30;;;;;;5127923;27;46296;-68
2023/01/31 05:59:55;;;;;;;1.30;1.20;;;17.00;36.40;;;;;;5128007;27;45267;-65
2023/01/31 06:02:21;;;;;;;1.17;1.00;;;17.00;36.40;;;;;;5128085;27;45474;-68
2023/01/31 06:04:48;;;;;;;1.10;1.10;;;17.00;36.50;;;;;;5127752;27;46290;-65
2023/01/31 06:07:15;;;;;;;1.10;1.10;;;16.90;36.60;;;;;;5127765;27;45295;-65
2023/01/31 06:09:42;;;;;;;0.90;0.90;;;16.90;36.70;;;;;;5127459;27;45204;-67
2023/01/31 06:12:12;;;;;;;1.33;1.05;;;16.80;36.70;;;;;;5128014;27;45227;-67
2023/01/31 06:14:39;;;;;;;1.00;1.00;;;16.80;36.80;;;;;;5127910;27;46164;-67
2023/01/31 06:17:05;;;;;;;1.55;1.40;;;16.70;36.90;;;;;;5127715;27;45227;-67
2023/01/31 06:19:32;;;;;;;1.10;1.00;;;16.60;36.90;;;;;;5127454;27;45399;-67
2023/01/31 06:21:59;;;;;;;0.70;0.70;;;16.60;37.00;;;;;;5127866;27;45337;-67
2023/01/31 06:24:26;;;;;;;1.13;1.02;;;16.50;37.10;;;;;;5127409;27;46375;-67
2023/01/31 06:26:53;;;;;;;1.20;1.10;;;16.50;37.20;;;;;;5127474;27;45271;-66
2023/01/31 06:29:21;;;;;;;1.40;1.10;;;16.40;37.30;;;;;;5127551;27;45255;-67
2023/01/31 06:31:48;;;;;;;1.13;1.13;;;16.40;37.30;;;;;;5127758;27;45315;-67
2023/01/31 06:34:15;;;;;;;1.02;0.93;;;16.30;37.30;;;;;;5127490;27;46153;-67
2023/01/31 06:36:42;;;;;;;1.27;0.90;;;16.30;37.40;;;;;;5127215;27;45346;-67
2023/01/31 06:39:09;;;;;;;1.17;1.08;;;16.30;38.10;;;;;;5127291;27;45225;-68
2023/01/31 06:41:36;;;;;;;0.93;0.93;;;16.20;37.50;;;;;;5127617;27;45310;-67
2023/01/31 06:44:03;;;;;;;1.02;1.02;;;16.20;37.70;;;;;;5124445;27;45312;-67
2023/01/31 06:46:31;;;;;;;1.83;1.02;;;16.10;37.70;;;;;;5127202;27;45401;-66
2023/01/31 06:48:58;;;;;;;1.27;1.05;;;16.10;37.80;;;;;;5127309;27;45238;-67
2023/01/31 06:51:25;;;;;;;1.05;1.00;;;16.00;37.80;;;;;;5127360;27;45188;-68
2023/01/31 06:53:52;;;;;;;1.30;1.17;;;16.00;37.90;;;;;;5126910;27;46306;-67
2023/01/31 06:56:19;;;;;;;1.35;1.08;;;16.10;37.90;;;;;;5126876;27;45306;-67
2023/01/31 06:58:46;;;;;;;0.82;0.82;;;16.10;38.30;;;;;;5127216;27;45304;-67
2023/01/31 07:01:13;;;;;;;2.05;1.17;;;16.20;37.50;;;;;;5127399;27;45424;-66
2023/01/31 07:03:41;;;;;;;1.10;1.10;;;16.40;37.20;;;;;;5126184;27;45475;-66
2023/01/31 07:06:08;;;;;;;0.98;0.98;;;16.50;36.90;;;;;;5126632;27;45420;-66
2023/01/31 07:08:35;;;;;;;1.23;1.13;;;16.70;36.80;;;;;;5126756;27;45447;-66
2023/01/31 07:11:03;;;;;;;1.23;1.10;;;16.80;36.60;;;;;;5127011;27;45284;-66
2023/01/31 07:13:29;;;;;;;1.83;1.10;;;16.90;36.40;;;;;;5126607;27;46605;-66
2023/01/31 07:15:56;;;;;;;1.10;1.00;;;17.00;36.30;;;;;;5126792;27;45203;-67
2023/01/31 07:18:23;;;;;;;1.50;1.40;;;17.00;36.20;;;;;;5126883;27;45354;-66
2023/01/31 07:20:51;;;;;;;1.30;1.20;;;17.00;36.20;;;;;;5127033;27;45242;-66
2023/01/31 07:23:18;;;;;;;1.85;1.10;;;17.00;36.70;;;;;;5126463;27;46644;-66
2023/01/31 07:25:45;;;;;;;1.13;1.10;;;17.10;36.10;;;;;;5126648;27;45217;-65
2023/01/31 07:28:12;;;;;;;1.98;1.33;;;17.10;36.10;;;;;;5126804;27;45190;-66
2023/01/31 07:30:42;;;;;;;1.33;1.10;;;17.00;36.10;;;;;;5126689;27;45411;-66
2023/01/31 07:33:09;;;;;;;1.85;1.02;;;17.00;36.20;;;;;;5126769;27;47872;-66
2023/01/31 07:35:36;;;;;;;1.33;1.25;;;17.00;36.20;;;;;;5126633;27;45191;-66
2023/01/31 07:38:04;;;;;;;1.80;1.40;;;16.90;36.30;;;;;;5126505;27;45208;-66
2023/01/31 07:40:31;;;;;;;1.30;1.17;;;16.90;36.40;;;;;;5126710;27;45517;-65
2023/01/31 07:42:58;;;;;;;1.20;1.10;;;16.80;36.40;;;;;;5126248;27;46591;-67
2023/01/31 07:45:26;;;;;;;1.70;1.38;;;16.80;36.50;;;;;;5126377;27;45239;-66
2023/01/31 07:47:52;;;;;;;1.50;1.40;;;16.70;36.60;;;;;;5126428;27;45248;-66
2023/01/31 07:50:20;;;;;;;1.85;1.63;;;16.70;36.70;;;;;;5126328;27;45427;-65
2023/01/31 07:52:47;;;;;;;2.05;1.50;;;16.60;36.70;;;;;;5126196;27;45460;-66
2023/01/31 07:55:16;;;;;;;1.67;1.52;;;16.60;36.80;;;;;;5126246;27;45333;-66
2023/01/31 07:57:43;;;;;;;2.90;2.15;;;16.50;36.80;;;;;;5126414;27;45187;-66
2023/01/31 08:03:31;;;;;;;2.15;1.63;;;16.50;36.90;;;;;;5126463;27;45234;-66
2023/01/31 08:05:45;;;;;;;1.98;1.55;;;16.40;37.10;;;;;;5125745;27;45358;-66
2023/01/31 08:08:12;;;;;;;2.58;1.70;;;16.30;37.10;;;;;;5126211;27;45177;-65
2023/01/31 08:10:41;;;;;;;1.77;1.67;;;16.30;37.30;;;;;;5126132;27;45531;-66
2023/01/31 08:13:09;;;;;;;2.28;1.90;;;16.20;37.30;;;;;;5125836;27;48316;-66
2023/01/31 08:15:36;;;;;;;2.28;1.60;;;16.20;37.40;;;;;;5126799;27;45202;-66
2023/01/31 08:18:03;;;;;;;1.83;1.60;;;16.20;37.40;;;;;;5129652;27;45191;-66
2023/01/31 08:20:30;;;;;;;1.58;1.38;;;16.10;37.50;;;;;;5129831;27;45328;-66
2023/01/31 08:22:58;;;;;;;1.75;1.48;;;16.10;37.60;;;;;;5129434;27;46287;-65
2023/01/31 08:25:27;;;;;;;3.33;1.67;;;16.10;37.70;;;;;;5129498;27;45177;-67
2023/01/31 08:27:56;;;;;;;1.85;1.75;;;16.20;37.60;;;;;;5129462;27;45247;-66
2023/01/31 08:30:23;;;;;;;2.30;1.73;;;16.20;37.40;;;;;;5129494;27;45350;-65
2023/01/31 08:32:50;;;;;;;2.70;1.73;;;16.30;37.20;;;;;;5129205;27;45368;-65
2023/01/31 08:35:17;;;;;;;3.08;1.80;;;16.50;37.00;;;;;;5129232;27;45265;-66
2023/01/31 08:37:44;;;;;;;2.00;1.80;;;16.60;36.90;;;;;;5129294;27;45181;-66
2023/01/31 08:40:12;;;;;;;1.55;1.45;;;16.80;36.70;;;;;;5129284;27;45338;-66
2023/01/31 08:42:38;;;;;;;1.92;1.67;;;16.90;36.50;;;;;;5129061;27;45254;-66
2023/01/31 08:45:08;;;;;;;1.42;1.33;;;17.00;36.30;;;;;;5129179;27;45253;-66
2023/01/31 08:47:35;;;;;;;2.53;1.85;;;17.00;36.20;;;;;;5129219;27;45382;-66
2023/01/31 08:50:02;;;;;;;2.25;1.52;;;17.10;36.10;;;;;;5129251;27;45292;-66
2023/01/31 08:52:34;;;;;;;1.95;1.85;;;17.10;36.10;;;;;;5128752;27;45282;-65
2023/01/31 08:55:01;;;;;;;2.13;1.60;;;17.10;36.10;;;;;;5128750;27;45394;-66
2023/01/31 08:57:27;;;;;;;2.05;1.77;;;17.10;36.10;;;;;;5128995;27;45336;-66
2023/01/31 08:59:55;;;;;;;2.58;1.67;;;17.10;36.20;;;;;;5129265;27;45247;-66
2023/01/31 09:02:23;;;;;;;3.22;1.92;;;17.10;36.20;;;;;;5128792;27;45796;-66
2023/01/31 09:04:50;;;;;;;4.38;1.90;;;17.10;36.20;;;;;;5128755;27;45259;-66
2023/01/31 09:07:20;;;;;;;2.88;1.90;;;17.10;36.90;;;;;;5128815;27;45150;-65
2023/01/31 09:09:47;;;;;;;1.80;1.63;;;17.00;36.40;;;;;;5128783;27;45526;-66
2023/01/31 09:12:14;;;;;;;2.28;1.90;;;17.00;36.50;;;;;;5128503;27;46376;-66
2023/01/31 09:14:41;;;;;;;2.78;1.85;;;17.00;36.60;;;;;;5128570;27;45298;-66
2023/01/31 09:17:09;;;;;;;1.80;1.70;;;16.90;36.60;;;;;;5128471;27;45305;-66
2023/01/31 09:19:38;;;;;;;1.88;1.70;;;16.90;36.70;;;;;;5128806;27;45243;-66
2023/01/31 09:22:04;;;;;;;1.80;1.63;;;16.80;36.80;;;;;;5128375;27;45368;-66
2023/01/31 09:24:31;;;;;;;1.98;1.70;;;16.80;36.90;;;;;;5128508;27;45315;-66
2023/01/31 09:26:58;;;;;;;1.85;1.63;;;16.70;36.90;;;;;;5127735;27;45354;-66
2023/01/31 09:29:26;;;;;;;2.53;1.90;;;16.70;37.00;;;;;;5128709;27;45251;-66
2023/01/31 09:31:53;;;;;;;2.60;1.70;;;16.70;37.20;;;;;;5128000;27;46694;-66
2023/01/31 09:34:21;;;;;;;1.30;1.20;;;16.60;37.20;;;;;;5128270;27;45332;-66
2023/01/31 09:36:49;;;;;;;1.70;1.52;;;16.60;37.30;;;;;;5128314;27;45328;-67
2023/01/31 09:39:16;;;;;;;7.03;2.28;;;16.60;37.40;;;;;;5128387;27;45175;-74
2023/01/31 09:41:44;;;;;;;3.88;1.95;;;16.50;37.80;;;;;;5128579;27;45190;-71
2023/01/31 09:44:13;;;;;;;4.82;2.22;;;16.50;37.80;;;;;;5128187;27;45344;-67
2023/01/31 09:46:42;;;;;;;7.78;2.55;;;16.50;37.80;;;;;;5127986;27;45258;-69
2023/01/31 09:49:10;;;;;;;4.82;2.40;;;16.50;37.80;;;;;;5128425;27;45363;-73
2023/01/31 09:51:38;;;;;;;4.80;2.15;;;16.50;37.80;;;;;;5127956;27;45356;-73
2023/01/31 09:54:07;;;;;;;4.97;2.63;;;16.50;38.20;;;;;;5128242;27;45315;-72
2023/01/31 09:56:38;;;;;;;3.45;2.42;;;16.50;38.40;;;;;;5128116;27;45246;-70
2023/01/31 09:59:08;;;;;;;2.83;2.45;;;16.60;38.10;;;;;;5128608;27;45296;-71
2023/01/31 10:01:38;;;;;;;5.15;2.30;;;16.90;37.90;;;;;;5127847;27;45492;-71
2023/01/31 10:04:18;;;;;;;8.13;2.67;;;17.10;37.40;;;;;;5128023;27;45270;-70
2023/01/31 10:06:48;;;;;;;5.00;2.25;;;17.40;37.30;;;;;;5127682;27;45389;-69
2023/01/31 10:09:19;;;;;;;14.50;2.50;;;17.70;37.00;;;;;;5127022;27;45347;-70
2023/01/31 10:11:47;;;;;;;9.23;2.92;;;17.90;36.90;;;;;;5126879;27;45312;-71
2023/01/31 10:14:22;;;;;;;5.60;2.70;;;18.10;36.10;;;;;;5126742;27;45271;-70
2023/01/31 10:16:56;;;;;;;5.53;2.42;;;18.10;35.80;;;;;;5127364;27;45262;-70
2023/01/31 10:19:24;;;;;;;6.68;2.60;;;18.20;35.80;;;;;;5128416;27;45299;-69
2023/01/31 10:21:53;;;;;;;3.95;2.75;;;18.20;35.80;;;;;;5127496;27;46784;-72
2023/01/31 10:24:25;;;;;;;6.65;2.78;;;18.30;35.80;;;;;;5127371;27;45311;-70
2023/01/31 10:26:52;;;;;;;7.93;3.00;;;18.40;35.70;;;;;;5127743;27;45203;-70
2023/01/31 10:29:21;;;;;;;7.82;3.50;;;18.40;35.60;;;;;;5127834;27;45400;-70
2023/01/31 10:31:51;;;;;;;8.95;3.25;;;18.40;35.60;;;;;;5127610;27;45649;-72
2023/01/31 10:34:19;;;;;;;7.53;3.08;;;18.40;36.00;;;;;;5127166;27;45206;-71
2023/01/31 10:36:49;;;;;;;10.73;3.78;;;18.40;35.90;;;;;;5127588;27;45333;-70
2023/01/31 10:39:18;;;;;;;4.57;3.00;;;18.40;35.90;;;;;;5126618;27;45112;-71
2023/01/31 10:41:57;;;;;;;6.03;3.10;;;18.50;36.10;;;;;;5127383;27;47006;-71
2023/01/31 10:44:27;;;;;;;4.80;2.88;;;18.50;36.00;;;;;;5127330;27;45410;-71
2023/01/31 10:46:55;;;;;;;5.18;3.13;;;18.50;35.90;;;;;;5127683;27;45334;-71
2023/01/31 10:49:22;;;;;;;5.60;3.28;;;18.50;35.90;;;;;;5127544;27;45231;-71
2023/01/31 10:51:56;;;;;;;6.80;3.53;;;18.50;36.40;;;;;;5127309;27;46769;-70
2023/01/31 10:54:30;;;;;;;5.38;3.28;;;18.40;36.00;;;;;;5126814;27;45292;-70
2023/01/31 10:56:59;;;;;;;6.78;3.50;;;18.40;36.10;;;;;;5127290;27;45404;-69
2023/01/31 10:59:29;;;;;;;6.45;3.38;;;18.40;36.20;;;;;;5127250;27;45496;-71
2023/01/31 11:01:57;;;;;;;10.73;3.55;;;18.30;36.30;;;;;;5126930;27;47549;-71
2023/01/31 11:04:26;;;;;;;9.43;3.90;;;18.30;36.50;;;;;;5126914;27;45232;-66
2023/01/31 11:06:53;;;;;;;6.68;3.42;;;18.50;36.90;;;;;;5126845;27;45367;-68
2023/01/31 11:09:20;;;;;;;7.95;3.60;;;18.60;37.00;;;;;;5126874;27;45437;-67
2023/01/31 11:11:54;;;;;;;5.80;3.30;;;18.80;37.00;;;;;;5126628;27;46589;-68
2023/01/31 11:14:22;;;;;;;5.00;3.15;;;19.00;37.30;;;;;;5126365;27;45340;-70
2023/01/31 11:16:50;;;;;;;3.65;2.95;;;19.10;36.90;;;;;;5106468;27;45398;-69
2023/01/31 11:19:19;;;;;;;5.10;3.40;;;19.20;36.90;;;;;;5125862;27;45474;-69
2023/01/31 11:21:49;;;;;;;5.68;2.95;;;19.30;36.70;;;;;;5125743;27;45270;-70
2023/01/31 11:24:19;;;;;;;7.50;3.33;;;19.40;36.70;;;;;;5126720;27;45352;-69
2023/01/31 11:26:50;;;;;;;5.82;3.70;;;19.50;36.60;;;;;;5126732;27;45265;-69
2023/01/31 11:29:18;;;;;;;5.88;3.30;;;19.60;36.50;;;;;;5126347;27;45373;-70
2023/01/31 11:31:47;;;;;;;3.90;3.20;;;19.70;36.40;;;;;;5122523;27;46306;-69
2023/01/31 11:34:21;;;;;;;13.77;3.70;;;19.70;36.50;;;;;;5126050;27;45336;-71
2023/01/31 11:36:48;;;;;;;10.45;3.50;;;19.70;36.50;;;;;;5126783;27;45287;-70
2023/01/31 11:39:30;;;;;;;6.65;3.50;;;19.80;36.50;;;;;;5126745;27;45275;-70
2023/01/31 11:41:57;;;;;;;6.65;2.92;;;19.80;36.40;;;;;;5125446;27;46385;-70
2023/01/31 11:44:24;;;;;;;8.45;3.70;;;19.80;36.50;;;;;;5122391;27;45415;-71
2023/01/31 11:46:54;;;;;;;8.02;3.17;;;19.80;36.80;;;;;;5122607;27;45260;-70
2023/01/31 11:49:31;;;;;;;9.98;3.60;;;19.70;36.80;;;;;;5125478;27;45385;-70
2023/01/31 11:51:59;;;;;;;6.88;3.60;;;19.60;37.00;;;;;;5126016;27;45469;-69
2023/01/31 11:54:27;;;;;;;6.35;3.50;;;19.60;37.30;;;;;;5128450;27;45266;-70
2023/01/31 11:56:55;;;;;;;11.55;3.50;;;19.60;37.20;;;;;;5128325;27;45283;-69
2023/01/31 11:59:22;;;;;;;4.22;3.40;;;19.60;37.10;;;;;;5128728;27;45298;-70
2023/01/31 12:01:50;;;;;;;11.02;3.40;;;19.70;37.00;;;;;;5128586;27;45314;-69
2023/01/31 12:04:20;;;;;;;14.65;3.83;;;19.70;37.00;;;;;;5128834;27;45277;-69
2023/01/31 12:06:58;;;;;;;10.52;3.35;;;19.60;37.30;;;;;;5128516;27;45509;-71
2023/01/31 12:09:26;;;;;;;8.50;3.53;;;19.60;37.30;;;;;;5128950;27;45403;-70
2023/01/31 12:11:54;;;;;;;7.97;3.83;;;19.70;37.20;;;;;;5128754;27;45199;-70
2023/01/31 12:14:21;;;;;;;5.82;3.30;;;19.70;37.40;;;;;;5130044;27;45234;-74
2023/01/31 12:16:48;;;;;;;8.23;3.78;;;19.60;37.10;;;;;;5130276;27;45325;-67
2023/01/31 12:19:24;;;;;;;9.25;3.95;;;19.60;37.10;;;;;;5129614;27;45628;-74
2023/01/31 12:21:55;;;;;;;10.80;4.05;;;19.50;35.60;;;;;;5129448;27;47586;-68
2023/01/31 12:24:32;;;;;;;7.28;3.75;;;19.30;35.50;;;;;;5129528;27;45286;-67
2023/01/31 12:27:01;;;;;;;12.20;3.83;;;19.20;36.30;;;;;;5129733;27;45267;-65
2023/01/31 12:29:53;;;;;;;12.20;3.80;;;19.10;36.70;;;;;;5129759;27;45187;-68
2023/01/31 12:32:30;;;;;;;7.50;3.60;;;19.00;37.00;;;;;;5129147;27;45328;-66
2023/01/31 12:35:16;;;;;;;7.15;3.30;;;18.80;37.30;;;;;;5129313;27;45248;-68
2023/01/31 12:37:49;;;;;;;6.45;3.42;;;18.70;37.50;;;;;;5129475;27;45223;-67
2023/01/31 12:40:27;;;;;;;7.45;3.30;;;18.60;37.70;;;;;;5129640;27;45423;-66
2023/01/31 12:42:56;;;;;;;4.43;3.05;;;18.60;37.90;;;;;;5129121;27;45257;-66
2023/01/31 12:45:31;;;;;;;5.15;3.28;;;18.50;38.00;;;;;;5129079;27;45350;-66
2023/01/31 12:48:18;;;;;;;5.07;2.97;;;18.40;38.10;;;;;;5129368;27;45230;-67
2023/01/31 12:50:48;;;;;;;5.68;3.20;;;18.30;38.30;;;;;;5129426;27;45224;-67
2023/01/31 12:53:27;;;;;;;5.72;3.25;;;18.30;38.40;;;;;;5128949;27;45537;-68
2023/01/31 12:56:04;;;;;;;7.25;3.20;;;18.30;38.50;;;;;;5128906;27;45257;-68
2023/01/31 12:58:39;;;;;;;4.30;2.90;;;18.20;38.50;;;;;;5129106;27;45291;-68
2023/01/31 13:01:08;;;;;;;7.03;3.00;;;18.20;38.60;;;;;;5129314;27;45275;-68
2023/01/31 13:03:57;;;;;;;5.78;3.00;;;18.20;38.60;;;;;;5127779;27;45284;-67